createdAt,value
2023-01-07T00:00:23.851Z,6.31
2023-01-07T00:02:53.702Z,6.14
2023-01-07T00:05:23.599Z,5.95
2023-01-07T00:07:53.347Z,5.84
2023-01-07T00:10:23.071Z,5.79
2023-01-07T00:12:53.139Z,5.86
2023-01-07T00:15:22.716Z,5.91
2023-01-07T00:17:52.474Z,5.89
2023-01-07T00:20:22.224Z,5.80
2023-01-07T00:22:52.544Z,5.45
2023-01-07T00:25:22.220Z,5.27
2023-01-07T00:27:52.121Z,5.18
2023-01-07T00:30:22.366Z,5.45
2023-01-07T00:33:02.196Z,5.37
2023-01-07T00:35:34.397Z,5.19
2023-01-07T00:38:06.620Z,5.10
2023-01-07T00:40:38.075Z,5.05
2023-01-07T00:43:07.715Z,5.15
2023-01-07T00:45:39.124Z,5.11
2023-01-07T00:48:09.768Z,5.10
2023-01-07T00:50:40.580Z,4.92
2023-01-07T00:53:11.963Z,5.09
2023-01-07T00:55:41.858Z,5.19
2023-01-07T00:58:20.943Z,5.20
2023-01-07T01:00:52.889Z,5.14
2023-01-07T01:03:21.834Z,4.87
2023-01-07T01:05:51.642Z,5.03
2023-01-07T01:08:23.587Z,5.08
2023-01-07T01:10:53.356Z,4.66
2023-01-07T01:13:22.885Z,4.66
2023-01-07T01:15:52.685Z,4.77
2023-01-07T01:18:22.558Z,4.96
2023-01-07T01:20:52.298Z,4.84
2023-01-07T01:23:22.255Z,4.85
2023-01-07T01:25:52.067Z,4.58
2023-01-07T01:28:21.578Z,4.49
2023-01-07T01:30:56.125Z,4.54
2023-01-07T01:33:26.449Z,4.30
2023-01-07T01:35:56.341Z,4.39
2023-01-07T01:38:26.060Z,4.39
2023-01-07T01:40:55.877Z,4.40
2023-01-07T01:43:28.844Z,4.31
2023-01-07T01:46:01.691Z,4.24
2023-01-07T01:48:33.796Z,4.28
2023-01-07T01:51:04.990Z,4.25
2023-01-07T01:53:36.808Z,4.37
2023-01-07T01:56:10.038Z,4.07
2023-01-07T01:58:48.669Z,4.07
2023-01-07T02:01:19.187Z,4.07
2023-01-07T02:03:50.656Z,4.17
2023-01-07T02:06:29.297Z,4.29
2023-01-07T02:08:59.204Z,4.17
2023-01-07T02:11:35.286Z,4.09
2023-01-07T02:14:41.391Z,3.73
2023-01-07T02:17:14.233Z,3.51
2023-01-07T02:19:55.550Z,3.58
2023-01-07T02:22:28.114Z,3.66
2023-01-07T02:25:21.888Z,3.55
2023-01-07T02:27:57.495Z,3.67
2023-01-07T02:30:30.389Z,3.29
2023-01-07T02:33:15.919Z,3.16
2023-01-07T02:35:48.792Z,3.43
2023-01-07T02:38:21.621Z,3.34
2023-01-07T02:41:12.594Z,3.29
2023-01-07T02:44:13.380Z,3.10
2023-01-07T02:46:48.934Z,2.88
2023-01-07T02:49:19.678Z,2.83
2023-01-07T02:51:49.580Z,2.83
2023-01-07T02:54:22.123Z,2.83
2023-01-07T02:57:14.893Z,3.18
2023-01-07T03:00:09.763Z,3.18
2023-01-07T03:03:01.945Z,2.96
2023-01-07T03:05:44.816Z,2.80
2023-01-07T03:08:26.449Z,2.80
2023-01-07T03:11:05.957Z,2.80
2023-01-07T03:13:51.374Z,2.83
2023-01-07T03:19:31.663Z,2.66
2023-01-07T03:22:04.502Z,2.58
2023-01-07T03:24:34.975Z,2.53
2023-01-07T03:27:07.232Z,2.51
2023-01-07T03:29:37.389Z,2.49
2023-01-07T03:32:13.202Z,2.38
2023-01-07T03:34:44.452Z,2.72
2023-01-07T03:37:20.161Z,2.40
2023-01-07T03:39:51.347Z,2.50
2023-01-07T03:42:39.140Z,2.42
2023-01-07T03:45:19.170Z,2.22
2023-01-07T03:47:51.756Z,2.18
2023-01-07T03:50:22.532Z,2.26
2023-01-07T03:52:52.630Z,2.06
2023-01-07T03:55:22.939Z,2.01
2023-01-07T03:57:53.743Z,2.25
2023-01-07T04:00:26.080Z,2.25
2023-01-07T04:02:57.851Z,2.48
2023-01-07T04:05:29.066Z,2.21
2023-01-07T04:07:59.351Z,1.93
2023-01-07T04:10:30.844Z,1.88
2023-01-07T04:13:00.790Z,1.81
2023-01-07T04:15:30.789Z,1.94
2023-01-07T04:18:00.568Z,1.98
2023-01-07T04:20:30.735Z,1.77
2023-01-07T04:23:01.184Z,1.61
2023-01-07T04:25:32.706Z,1.54
2023-01-07T04:28:04.401Z,1.45
2023-01-07T04:30:35.493Z,1.40
2023-01-07T04:33:07.319Z,1.21
2023-01-07T04:35:37.236Z,1.25
2023-01-07T04:38:07.532Z,1.16
2023-01-07T04:40:37.029Z,1.14
2023-01-07T04:43:07.104Z,0.99
2023-01-07T04:45:37.338Z,1.02
2023-01-07T04:48:08.516Z,0.99
2023-01-07T04:50:38.320Z,0.97
2023-01-07T04:53:08.528Z,0.99
2023-01-07T04:55:39.672Z,1.02
2023-01-07T04:58:09.421Z,1.06
2023-01-07T05:00:39.855Z,1.16
2023-01-07T05:03:12.506Z,1.10
2023-01-07T05:05:42.697Z,1.15
2023-01-07T05:08:14.239Z,1.15
2023-01-07T05:10:44.291Z,1.27
2023-01-07T05:13:17.134Z,1.50
2023-01-07T05:15:47.917Z,1.40
2023-01-07T05:18:18.228Z,1.42
2023-01-07T05:20:48.365Z,1.48
2023-01-07T05:23:18.232Z,1.53
2023-01-07T05:25:48.186Z,1.57
2023-01-07T05:28:18.056Z,1.55
2023-01-07T05:30:48.511Z,1.62
2023-01-07T05:33:18.063Z,1.54
2023-01-07T05:35:49.565Z,1.44
2023-01-07T05:38:19.725Z,1.35
2023-01-07T05:40:50.306Z,1.37
2023-01-07T05:43:21.775Z,1.42
2023-01-07T05:45:52.612Z,1.34
2023-01-07T05:48:22.300Z,1.43
2023-01-07T05:50:52.177Z,1.67
2023-01-07T05:53:21.750Z,1.46
2023-01-07T05:56:00.073Z,1.43
2023-01-07T05:58:30.454Z,1.30
2023-01-07T06:01:00.451Z,1.26
2023-01-07T06:03:30.670Z,1.36
2023-01-07T06:06:02.089Z,1.46
2023-01-07T06:08:31.892Z,1.63
2023-01-07T06:11:01.864Z,1.57
2023-01-07T06:13:31.898Z,1.57
2023-01-07T06:16:09.896Z,1.54
2023-01-07T06:18:39.976Z,1.57
2023-01-07T06:21:09.486Z,1.63
2023-01-07T06:23:39.487Z,1.74
2023-01-07T06:26:09.073Z,1.78
2023-01-07T06:28:38.886Z,1.84
2023-01-07T06:31:12.809Z,1.89
2023-01-07T06:33:42.672Z,2.09
2023-01-07T06:36:12.592Z,2.30
2023-01-07T06:38:42.401Z,2.22
2023-01-07T06:41:12.156Z,2.35
2023-01-07T06:43:42.044Z,2.63
2023-01-07T06:46:11.867Z,2.33
2023-01-07T06:48:41.715Z,2.52
2023-01-07T06:51:11.281Z,2.62
2023-01-07T06:53:41.069Z,2.74
2023-01-07T06:56:10.805Z,2.82
2023-01-07T06:58:40.595Z,2.84
2023-01-07T07:01:10.530Z,2.96
2023-01-07T07:03:40.276Z,2.96
2023-01-07T07:06:10.469Z,2.88
2023-01-07T07:08:41.035Z,2.95
2023-01-07T07:11:09.809Z,3.15
2023-01-07T07:13:39.624Z,2.89
2023-01-07T07:16:09.332Z,2.84
2023-01-07T07:18:39.102Z,2.74
2023-01-07T07:21:09.293Z,2.88
2023-01-07T07:23:39.070Z,2.86
2023-01-07T07:26:10.044Z,2.90
2023-01-07T07:28:41.430Z,2.98
2023-01-07T07:31:11.485Z,2.98
2023-01-07T07:33:41.259Z,3.07
2023-01-07T07:36:10.933Z,3.08
2023-01-07T07:38:40.967Z,3.13
2023-01-07T07:41:10.543Z,3.10
2023-01-07T07:43:40.368Z,3.06
2023-01-07T07:46:10.269Z,3.08
2023-01-07T07:48:40.969Z,3.16
2023-01-07T07:51:10.491Z,3.19
2023-01-07T07:53:40.240Z,3.23
2023-01-07T07:56:10.884Z,3.30
2023-01-07T07:58:43.967Z,3.40
2023-01-07T08:01:13.594Z,3.61
2023-01-07T08:03:43.471Z,3.73
2023-01-07T08:06:15.054Z,3.70
2023-01-07T08:08:44.922Z,3.75
2023-01-07T08:11:14.472Z,3.84
2023-01-07T08:13:44.332Z,3.81
2023-01-07T08:16:14.236Z,3.86
2023-01-07T08:18:45.164Z,3.95
2023-01-07T08:21:14.951Z,3.99
2023-01-07T08:23:44.747Z,4.03
2023-01-07T08:26:14.259Z,4.09
2023-01-07T08:28:46.468Z,4.16
2023-01-07T08:31:16.638Z,4.20
2023-01-07T08:33:46.649Z,4.30
2023-01-07T08:36:23.079Z,4.30
2023-01-07T08:38:53.783Z,4.43
2023-01-07T08:41:24.802Z,4.43
2023-01-07T08:43:55.077Z,4.51
2023-01-07T08:46:25.009Z,4.50
2023-01-07T08:48:54.913Z,4.55
2023-01-07T08:51:24.376Z,4.59
2023-01-07T08:53:55.349Z,4.67
2023-01-07T08:56:24.120Z,4.69
2023-01-07T08:58:53.535Z,4.71
2023-01-07T09:01:23.171Z,4.80
2023-01-07T09:03:53.203Z,4.86
2023-01-07T09:06:23.501Z,4.90
2023-01-07T09:08:53.331Z,4.98
2023-01-07T09:11:23.159Z,5.37
2023-01-07T09:13:52.919Z,5.15
2023-01-07T09:16:23.669Z,5.32
2023-01-07T09:18:53.451Z,5.40
2023-01-07T09:21:23.149Z,5.49
2023-01-07T09:23:57.130Z,5.76
2023-01-07T09:26:27.335Z,5.76
2023-01-07T09:28:57.200Z,5.99
2023-01-07T09:31:27.083Z,5.94
2023-01-07T09:33:58.982Z,6.03
2023-01-07T09:36:28.496Z,6.18
2023-01-07T09:38:58.281Z,6.40
2023-01-07T09:41:34.101Z,6.43
2023-01-07T09:44:25.498Z,6.56
2023-01-07T09:46:57.228Z,6.63
2023-01-07T09:49:32.280Z,6.63
2023-01-07T09:52:10.850Z,6.77
2023-01-07T09:54:42.053Z,6.86
2023-01-07T09:57:14.577Z,6.85
2023-01-07T09:59:47.179Z,7.02
2023-01-07T10:02:37.655Z,6.80
2023-01-07T10:05:21.761Z,6.80
2023-01-07T10:08:29.475Z,6.95
2023-01-07T10:10:38.629Z,7.15
2023-01-07T10:13:31.091Z,7.37
2023-01-07T10:16:12.286Z,7.36
2023-01-07T10:19:18.989Z,7.60
2023-01-07T10:21:57.837Z,7.71
2023-01-07T10:24:35.249Z,7.93
2023-01-07T10:27:11.165Z,8.11
2023-01-07T10:29:50.830Z,8.21
2023-01-07T10:32:24.098Z,8.14
2023-01-07T10:34:56.896Z,8.03
2023-01-07T10:37:36.065Z,8.05
2023-01-07T10:40:24.216Z,8.29
2023-01-07T10:42:57.352Z,8.25
2023-01-07T10:45:33.113Z,8.12
2023-01-07T10:48:09.015Z,8.31
2023-01-07T10:51:04.585Z,8.39
2023-01-07T10:53:42.064Z,8.42
2023-01-07T10:56:26.616Z,8.60
2023-01-07T10:58:58.404Z,8.60
2023-01-07T11:01:38.348Z,8.66
2023-01-07T11:04:18.210Z,8.84
2023-01-07T11:07:04.144Z,8.78
2023-01-07T11:09:45.436Z,9.13
2023-01-07T11:12:33.092Z,9.35
2023-01-07T11:15:05.969Z,9.35
2023-01-07T11:17:53.565Z,9.60
2023-01-07T11:20:57.666Z,9.60
2023-01-07T11:23:36.898Z,9.58
2023-01-07T11:26:15.941Z,9.54
2023-01-07T11:28:54.456Z,9.34
2023-01-07T11:31:27.181Z,9.18
2023-01-07T11:34:02.800Z,9.56
2023-01-07T11:36:42.879Z,9.86
2023-01-07T11:39:15.680Z,9.87
2023-01-07T11:42:00.532Z,10.23
2023-01-07T11:44:30.360Z,10.62
2023-01-07T11:47:00.305Z,10.68
2023-01-07T11:49:32.061Z,10.67
2023-01-07T11:52:02.829Z,10.92
2023-01-07T11:54:33.576Z,10.90
2023-01-07T11:57:14.868Z,10.76
2023-01-07T11:59:44.987Z,10.90
2023-01-07T12:02:26.813Z,10.90
2023-01-07T12:05:11.333Z,10.95
2023-01-07T12:07:44.211Z,11.15
2023-01-07T12:10:32.142Z,11.17
2023-01-07T12:13:05.185Z,11.13
2023-01-07T12:15:38.392Z,11.36
2023-01-07T12:18:15.508Z,11.38
2023-01-07T12:20:59.014Z,11.30
2023-01-07T12:23:31.871Z,11.27
2023-01-07T12:26:07.521Z,11.31
2023-01-07T12:29:00.003Z,10.96
2023-01-07T12:31:51.143Z,10.96
2023-01-07T12:34:42.081Z,10.93
2023-01-07T12:37:38.166Z,11.10
2023-01-07T12:40:20.211Z,11.10
2023-01-07T12:42:55.755Z,11.16
2023-01-07T12:45:37.687Z,11.22
2023-01-07T12:48:10.684Z,11.22
2023-01-07T12:50:43.733Z,11.39
2023-01-07T12:53:22.157Z,11.25
2023-01-07T12:55:55.053Z,11.14
2023-01-07T12:58:49.749Z,11.18
2023-01-07T13:01:32.937Z,11.16
2023-01-07T13:04:09.327Z,11.09
2023-01-07T13:06:57.667Z,11.01
2023-01-07T13:09:40.616Z,11.02
2023-01-07T13:12:41.638Z,10.54
2023-01-07T13:15:12.906Z,10.74
2023-01-07T13:17:44.787Z,10.80
2023-01-07T13:20:16.203Z,10.83
2023-01-07T13:22:55.940Z,10.83
2023-01-07T13:25:54.423Z,10.62
2023-01-07T13:28:40.752Z,10.58
2023-01-07T13:31:30.157Z,10.54
2023-01-07T13:34:28.582Z,10.53
2023-01-07T13:37:31.189Z,10.43
2023-01-07T13:40:31.675Z,10.26
2023-01-07T13:43:31.569Z,10.22
2023-01-07T13:46:04.447Z,10.19
2023-01-07T13:48:34.842Z,10.19
2023-01-07T13:51:07.628Z,10.13
2023-01-07T13:53:45.071Z,10.06
2023-01-07T13:56:23.536Z,10.05
2023-01-07T13:58:58.087Z,10.05
2023-01-07T14:01:34.040Z,9.94
2023-01-07T14:04:09.750Z,9.94
2023-01-07T14:06:48.784Z,9.82
2023-01-07T14:09:25.905Z,9.70
2023-01-07T14:12:13.753Z,9.76
2023-01-07T14:14:49.731Z,9.60
2023-01-07T14:17:38.907Z,9.70
2023-01-07T14:20:26.540Z,9.64
2023-01-07T14:23:11.953Z,9.63
2023-01-07T14:25:50.123Z,9.30
2023-01-07T14:28:39.740Z,9.07
2023-01-07T14:31:18.024Z,9.05
2023-01-07T14:33:52.293Z,8.98
2023-01-07T14:36:28.254Z,9.29
2023-01-07T14:39:00.383Z,8.89
2023-01-07T14:41:33.064Z,8.90
2023-01-07T14:44:10.756Z,8.65
2023-01-07T14:46:45.736Z,8.41
2023-01-07T14:49:27.605Z,8.01
2023-01-07T14:52:18.756Z,7.59
2023-01-07T14:55:06.973Z,7.45
2023-01-07T15:01:44.513Z,7.31
2023-01-07T15:04:53.274Z,7.30
2023-01-07T15:07:28.527Z,7.31
2023-01-07T15:10:19.029Z,6.99
2023-01-07T15:13:09.311Z,6.78
2023-01-07T15:15:58.463Z,6.80
2023-01-07T15:18:47.617Z,6.79
2023-01-07T15:21:38.175Z,7.04
2023-01-07T15:24:27.593Z,6.88
2023-01-07T15:27:18.734Z,6.41
2023-01-07T15:30:06.082Z,6.10
2023-01-07T15:32:57.038Z,5.88
2023-01-07T15:35:32.576Z,5.59
2023-01-07T15:38:05.184Z,5.58
2023-01-07T15:40:35.299Z,5.42
2023-01-07T15:43:06.263Z,5.38
2023-01-07T15:45:36.166Z,5.20
2023-01-07T15:48:09.696Z,4.93
2023-01-07T15:50:40.890Z,4.94
2023-01-07T15:53:16.591Z,4.95
2023-01-07T15:55:52.513Z,4.64
2023-01-07T15:58:47.900Z,4.56
2023-01-07T16:01:20.319Z,4.37
2023-01-07T16:03:57.841Z,4.38
2023-01-07T16:06:36.673Z,4.27
2023-01-07T16:09:16.444Z,4.29
2023-01-07T16:11:47.038Z,4.08
2023-01-07T16:14:22.590Z,3.97
2023-01-07T16:17:12.075Z,3.92
2023-01-07T16:19:43.594Z,3.99
2023-01-07T16:22:18.661Z,3.97
2023-01-07T16:24:54.261Z,3.77
2023-01-07T16:27:26.806Z,3.65
2023-01-07T16:30:01.408Z,3.59
2023-01-07T16:32:34.525Z,3.53
2023-01-07T16:35:07.358Z,3.73
2023-01-07T16:37:40.071Z,3.89
2023-01-07T16:40:12.753Z,3.58
2023-01-07T16:42:45.652Z,3.39
2023-01-07T16:45:35.889Z,3.27
2023-01-07T16:48:19.855Z,3.18
2023-01-07T16:50:53.326Z,3.08
2023-01-07T16:53:33.418Z,2.93
2023-01-07T16:56:15.780Z,2.93
2023-01-07T16:58:55.456Z,2.87
2023-01-07T17:01:34.650Z,2.77
2023-01-07T17:04:07.742Z,2.74
2023-01-07T17:06:43.189Z,2.92
2023-01-07T17:09:36.814Z,2.89
2023-01-07T17:12:07.513Z,2.69
2023-01-07T17:14:43.149Z,2.57
2023-01-07T17:17:21.903Z,2.44
2023-01-07T17:19:54.868Z,2.38
2023-01-07T17:22:37.548Z,2.33
2023-01-07T17:25:16.023Z,2.20
2023-01-07T17:28:08.574Z,2.15
2023-01-07T17:30:38.651Z,2.12
2023-01-07T17:33:10.036Z,2.16
2023-01-07T17:35:40.545Z,2.18
2023-01-07T17:38:15.051Z,2.01
2023-01-07T17:40:46.089Z,1.91
2023-01-07T17:43:33.847Z,1.88
2023-01-07T17:46:06.919Z,1.84
2023-01-07T17:48:37.242Z,1.89
2023-01-07T17:51:08.308Z,1.80
2023-01-07T17:53:42.017Z,1.76
2023-01-07T17:56:11.600Z,1.70
2023-01-07T17:58:41.828Z,1.51
2023-01-07T18:01:14.352Z,1.61
2023-01-07T18:03:47.273Z,1.61
2023-01-07T18:06:25.427Z,1.64
2023-01-07T18:08:56.584Z,1.52
2023-01-07T18:11:46.888Z,1.50
2023-01-07T18:14:17.119Z,1.50
2023-01-07T18:16:47.487Z,1.49
2023-01-07T18:19:17.151Z,1.71
2023-01-07T18:21:47.050Z,1.78
2023-01-07T18:24:20.675Z,1.63
2023-01-07T18:26:54.070Z,1.55
2023-01-07T18:29:24.030Z,1.73
2023-01-07T18:31:53.922Z,1.67
2023-01-07T18:34:23.903Z,1.82
2023-01-07T18:36:54.400Z,2.04
2023-01-07T18:39:29.266Z,1.96
2023-01-07T18:42:00.447Z,2.18
2023-01-07T18:44:30.462Z,2.05
2023-01-07T18:47:00.266Z,2.14
2023-01-07T18:49:30.395Z,2.20
2023-01-07T18:52:00.839Z,2.23
2023-01-07T18:54:32.260Z,2.04
2023-01-07T18:57:02.550Z,1.97
2023-01-07T18:59:32.411Z,2.03
2023-01-07T19:02:02.899Z,1.91
2023-01-07T19:04:34.377Z,2.21
2023-01-07T19:07:04.591Z,2.95
2023-01-07T19:09:34.442Z,2.95
2023-01-07T19:12:04.899Z,2.51
2023-01-07T19:14:35.526Z,2.49
2023-01-07T19:17:07.800Z,2.43
2023-01-07T19:19:47.897Z,2.29
2023-01-07T19:22:10.722Z,2.14
2023-01-07T19:24:40.566Z,2.14
2023-01-07T19:27:10.509Z,2.25
2023-01-07T19:29:49.958Z,2.08
2023-01-07T19:32:19.616Z,1.79
2023-01-07T19:34:51.299Z,1.63
2023-01-07T19:37:22.153Z,1.65
2023-01-07T19:39:53.598Z,1.52
2023-01-07T19:42:24.372Z,1.56
2023-01-07T19:44:55.030Z,1.45
2023-01-07T19:47:25.385Z,1.31
2023-01-07T19:49:54.754Z,1.26
2023-01-07T19:52:24.476Z,1.24
2023-01-07T19:54:54.315Z,1.25
2023-01-07T19:57:24.015Z,1.29
2023-01-07T19:59:53.902Z,1.10
2023-01-07T20:02:24.709Z,1.10
2023-01-07T20:04:54.808Z,1.20
2023-01-07T20:07:24.660Z,1.12
2023-01-07T20:09:54.444Z,1.10
2023-01-07T20:12:24.981Z,1.10
2023-01-07T20:14:54.848Z,1.15
2023-01-07T20:17:25.065Z,1.14
2023-01-07T20:19:54.899Z,1.00
2023-01-07T20:22:24.785Z,1.02
2023-01-07T20:24:54.595Z,0.93
2023-01-07T20:27:24.560Z,0.93
2023-01-07T20:29:54.449Z,0.90
2023-01-07T20:32:24.451Z,0.92
2023-01-07T20:34:54.555Z,1.42
2023-01-07T20:37:26.132Z,1.25
2023-01-07T20:39:56.282Z,1.29
2023-01-07T20:42:26.848Z,1.30
2023-01-07T20:44:57.228Z,1.18
2023-01-07T20:47:27.707Z,1.18
2023-01-07T20:49:57.799Z,1.04
2023-01-07T20:52:27.743Z,1.16
2023-01-07T20:55:00.205Z,0.93
2023-01-07T20:57:35.713Z,0.93
2023-01-07T21:00:07.002Z,0.76
2023-01-07T21:02:37.282Z,0.56
2023-01-07T21:05:12.520Z,0.51
2023-01-07T21:07:49.091Z,0.50
2023-01-07T21:10:22.221Z,0.41
2023-01-07T21:12:59.074Z,0.49
2023-01-07T21:15:31.201Z,0.60
2023-01-07T21:18:01.358Z,0.66
2023-01-07T21:20:32.938Z,0.41
2023-01-07T21:23:05.558Z,0.29
2023-01-07T21:25:37.052Z,0.29
2023-01-07T21:28:10.116Z,0.17
2023-01-07T21:30:53.552Z,0.27
2023-01-07T21:33:23.323Z,0.39
2023-01-07T21:35:53.163Z,0.48
2023-01-07T21:38:24.750Z,0.76
2023-01-07T21:40:54.532Z,0.63
2023-01-07T21:43:24.305Z,1.38
2023-01-07T21:45:54.218Z,1.73
2023-01-07T21:48:23.750Z,1.48
2023-01-07T21:50:53.615Z,1.52
2023-01-07T21:53:23.404Z,1.49
2023-01-07T21:55:53.202Z,1.61
2023-01-07T21:58:22.972Z,1.61
2023-01-07T22:00:54.400Z,1.77
2023-01-07T22:03:24.273Z,1.74
2023-01-07T22:05:58.738Z,1.74
2023-01-07T22:08:28.720Z,1.95
2023-01-07T22:10:58.567Z,1.98
2023-01-07T22:13:28.657Z,2.01
2023-01-07T22:15:58.476Z,1.73
2023-01-07T22:18:28.328Z,1.73
2023-01-07T22:20:58.199Z,1.52
2023-01-07T22:23:27.993Z,1.68
2023-01-07T22:26:05.817Z,1.73
2023-01-07T22:28:38.012Z,1.23
2023-01-07T22:31:16.884Z,1.23
2023-01-07T22:33:46.743Z,1.75
2023-01-07T22:36:19.512Z,1.80
2023-01-07T22:38:50.345Z,1.70
2023-01-07T22:41:20.144Z,1.12
2023-01-07T22:43:50.462Z,1.07
2023-01-07T22:46:26.107Z,1.07
2023-01-07T22:48:55.918Z,0.97
2023-01-07T22:51:28.865Z,1.00
2023-01-07T22:54:01.193Z,1.33
2023-01-07T22:56:31.306Z,1.35
2023-01-07T22:59:01.053Z,1.57
2023-01-07T23:01:31.986Z,1.23
2023-01-07T23:04:01.943Z,1.23
2023-01-07T23:06:32.422Z,1.47
2023-01-07T23:09:02.292Z,1.30
2023-01-07T23:11:48.383Z,1.26
2023-01-07T23:14:20.624Z,1.16
2023-01-07T23:16:51.388Z,1.22
2023-01-07T23:19:22.079Z,1.15
2023-01-07T23:21:54.066Z,1.23
2023-01-07T23:24:24.554Z,1.56
2023-01-07T23:26:55.269Z,1.69
2023-01-07T23:29:24.933Z,1.83
2023-01-07T23:31:54.806Z,1.72
2023-01-07T23:34:24.320Z,1.62
2023-01-07T23:36:54.094Z,1.46
2023-01-07T23:39:23.572Z,1.42
2023-01-07T23:41:53.376Z,1.29
2023-01-07T23:44:22.914Z,1.28
2023-01-07T23:46:52.748Z,1.48
2023-01-07T23:49:22.351Z,1.65
2023-01-07T23:51:54.209Z,1.55
2023-01-07T23:54:24.312Z,1.45
2023-01-07T23:56:54.119Z,1.34
2023-01-07T23:59:23.691Z,1.34
